Hovedside
METAR-TAF:

METAR-TAF

Lufthavner :

Örebro, Sverige

breddegrad: 59-14N, lengdegrad: 015-03E, høyde over havet: 57 m

Gjeldene værobservasjon

Denne rapporten ble laget for 37 minutter siden, klokken 01:20 UTC
Vind 6 kt fra Sørvest
Temperatur 2°C
Luftfuktighet 93%
Trykk 1000 hPa
Sikt 10 km eller mer

METAR: ESOE 290120Z AUTO 22006KT 9999 BKN009/// OVC012/// 02/01 Q1000

Tid: 02:57 (01:57 UTC)

Varsel

Denne rapporten ble laget for 8 timer og 27 minutter siden, klokken 17:30 UTC
Varsel gyldig fra 28. klokken 18 UTC til 28. klokken 22 UTC
Vind 5 kt fra Sør-sørvest
Sikt 10 km eller mer
Spredte skyer i en høyde av 3000 ft

TAF: ESOE 281730Z 2818/2822 20005KT 9999 SCT030

Værobservasjoner og værvarsel for over 4000 flyplasser (METAR- og TAF-rapporter).

Tilgjengelige stasjoner er representert av de røde og gule prikkene på kartet.

Hold musepekeren over prikken for å se navnet på stasjonen.

Klikk så for å se værobservasjoner og -varsler.

For å forandre kartet kan du klikke på den grønne knappen med svart kryss for å zoome inn, på den grønne knappen med strek for å zoome ut, eller på de grønne pilene for å se tilstøtende kart.


METAR-TAF: